createdAt,value
2019-04-27T03:01:21.530Z,94.00
2019-04-27T03:03:50.795Z,94.10
2019-04-27T03:06:20.244Z,94.10
2019-04-27T03:08:53.883Z,94.00
2019-04-27T03:11:23.443Z,94.10
2019-04-27T03:13:54.104Z,94.20
2019-04-27T03:16:25.241Z,94.30
2019-04-27T03:19:18.192Z,94.30
2019-04-27T03:22:01.360Z,94.30
2019-04-27T03:24:49.790Z,94.30
2019-04-27T03:27:20.868Z,94.30
2019-04-27T03:29:50.381Z,94.10
2019-04-27T03:32:22.580Z,94.00
2019-04-27T03:34:52.369Z,94.00
2019-04-27T03:37:22.187Z,94.10
2019-04-27T03:39:51.459Z,94.20
2019-04-27T03:42:21.191Z,94.30
2019-04-27T03:44:50.559Z,94.30
2019-04-27T03:47:20.146Z,94.60
2019-04-27T03:49:50.703Z,94.60
2019-04-27T03:52:34.607Z,94.60
2019-04-27T03:55:05.656Z,94.60
2019-04-27T03:57:36.561Z,94.70
2019-04-27T04:00:10.555Z,94.90
2019-04-27T04:02:40.640Z,95.00
2019-04-27T04:05:10.161Z,95.10
2019-04-27T04:07:40.389Z,95.10
2019-04-27T04:10:10.814Z,95.10
2019-04-27T04:12:50.109Z,95.00
2019-04-27T04:15:36.259Z,94.90
2019-04-27T04:18:05.595Z,94.90
2019-04-27T04:20:35.832Z,94.80
2019-04-27T04:23:05.136Z,94.60
2019-04-27T04:25:34.683Z,94.50
2019-04-27T04:28:03.940Z,94.40
2019-04-27T04:30:33.484Z,94.40
2019-04-27T04:33:02.820Z,94.20
2019-04-27T04:35:33.330Z,94.20
2019-04-27T04:38:03.062Z,94.00
2019-04-27T04:40:50.303Z,93.90
2019-04-27T04:43:29.309Z,93.80
2019-04-27T04:45:59.791Z,93.60
2019-04-27T04:48:30.247Z,93.50
2019-04-27T04:51:00.133Z,93.50
2019-04-27T04:53:29.515Z,93.50
2019-04-27T04:56:00.336Z,93.50
2019-04-27T04:58:29.783Z,93.30
2019-04-27T05:00:59.566Z,93.30
2019-04-27T05:03:30.462Z,93.20
2019-04-27T05:05:59.731Z,93.20
2019-04-27T05:08:29.275Z,93.10
2019-04-27T05:10:59.686Z,93.10
2019-04-27T05:13:29.432Z,93.20
2019-04-27T05:15:58.989Z,93.20
2019-04-27T05:18:29.311Z,93.20
2019-04-27T05:21:15.490Z,93.10
2019-04-27T05:23:44.743Z,93.10
2019-04-27T05:26:14.014Z,92.90
2019-04-27T05:28:43.286Z,92.80
2019-04-27T05:31:12.554Z,92.50
2019-04-27T05:33:42.051Z,92.70
2019-04-27T05:36:11.315Z,92.70
2019-04-27T05:38:45.998Z,92.70
2019-04-27T05:41:11.534Z,92.60
2019-04-27T05:43:58.996Z,92.60
2019-04-27T05:46:46.098Z,92.30
2019-04-27T05:49:32.143Z,92.30
2019-04-27T05:52:01.410Z,92.30
2019-04-27T05:54:30.687Z,91.80
2019-04-27T05:56:59.955Z,92.30
2019-04-27T05:59:29.907Z,92.10
2019-04-27T06:01:59.545Z,91.70
2019-04-27T06:04:29.857Z,91.80
2019-04-27T06:07:01.085Z,91.60
2019-04-27T06:09:30.099Z,91.30
2019-04-27T06:11:59.366Z,91.10
2019-04-27T06:14:29.244Z,91.40
2019-04-27T06:16:59.631Z,91.50
2019-04-27T06:19:29.994Z,91.20
2019-04-27T06:22:01.281Z,90.90
2019-04-27T06:24:30.222Z,90.80
2019-04-27T06:26:59.780Z,90.70
2019-04-27T06:29:29.396Z,90.60
2019-04-27T06:31:59.686Z,90.20
2019-04-27T06:34:30.997Z,90.30
2019-04-27T06:37:00.161Z,90.50
2019-04-27T06:39:29.936Z,90.30
2019-04-27T06:42:01.254Z,90.40
2019-04-27T06:44:31.211Z,90.40
2019-04-27T06:47:00.470Z,89.80
2019-04-27T06:49:29.737Z,89.80
2019-04-27T06:51:59.010Z,90.10
2019-04-27T06:54:28.867Z,89.10
2019-04-27T06:56:59.251Z,88.90
2019-04-27T06:59:28.982Z,89.70
2019-04-27T07:02:00.530Z,89.00
2019-04-27T07:04:29.511Z,86.10
2019-04-27T07:06:59.426Z,85.00
2019-04-27T07:09:29.771Z,84.60
2019-04-27T07:11:59.378Z,85.40
2019-04-27T07:14:29.502Z,82.50
2019-04-27T07:16:59.230Z,82.10
2019-04-27T07:19:29.967Z,80.20
2019-04-27T07:21:59.614Z,80.20
2019-04-27T07:24:29.355Z,78.60
2019-04-27T07:26:59.619Z,77.50
2019-04-27T07:29:29.386Z,79.00
2019-04-27T07:31:59.666Z,77.60
2019-04-27T07:34:30.470Z,77.20
2019-04-27T07:36:59.948Z,75.90
2019-04-27T07:39:29.531Z,75.90
2019-04-27T07:41:58.823Z,74.70
2019-04-27T07:44:41.546Z,75.00
2019-04-27T07:47:30.754Z,75.80
2019-04-27T07:50:01.353Z,74.70
2019-04-27T07:52:31.336Z,75.00
2019-04-27T07:55:00.594Z,74.10
2019-04-27T07:57:29.854Z,74.00
2019-04-27T07:59:59.686Z,74.30
2019-04-27T08:02:29.163Z,73.80
2019-04-27T08:04:59.567Z,72.50
2019-04-27T08:07:29.223Z,72.00
2019-04-27T08:10:01.048Z,70.10
2019-04-27T08:12:29.506Z,70.40
2019-04-27T08:15:00.080Z,71.20
2019-04-27T08:17:30.304Z,70.80
2019-04-27T08:19:59.699Z,72.80
2019-04-27T08:22:29.189Z,72.40
2019-04-27T08:24:59.471Z,73.60
2019-04-27T08:27:33.455Z,73.30
2019-04-27T08:30:04.649Z,73.60
2019-04-27T08:32:35.811Z,73.90
2019-04-27T08:35:06.778Z,72.00
2019-04-27T08:37:36.047Z,71.80
2019-04-27T08:40:06.755Z,72.30
2019-04-27T08:42:36.094Z,72.50
2019-04-27T08:45:06.602Z,73.10
2019-04-27T08:47:35.867Z,73.30
2019-04-27T08:50:05.266Z,74.00
2019-04-27T08:52:34.539Z,74.50
2019-04-27T08:55:09.597Z,76.80
2019-04-27T08:57:39.207Z,79.10
2019-04-27T09:00:09.566Z,79.40
2019-04-27T09:02:46.502Z,80.80
2019-04-27T09:05:10.491Z,81.40
2019-04-27T09:07:41.437Z,80.90
2019-04-27T09:10:15.454Z,81.20
2019-04-27T09:13:02.584Z,80.50
2019-04-27T09:15:36.687Z,81.20
2019-04-27T09:18:05.967Z,81.10
2019-04-27T09:20:38.859Z,82.80
2019-04-27T09:23:09.719Z,82.40
2019-04-27T09:25:39.719Z,82.90
2019-04-27T09:28:09.070Z,85.00
2019-04-27T09:30:39.272Z,83.30
2019-04-27T09:33:08.678Z,83.30
2019-04-27T09:35:37.945Z,83.30
2019-04-27T09:38:07.220Z,84.40
2019-04-27T09:40:36.703Z,82.50
2019-04-27T09:43:07.530Z,81.90
2019-04-27T09:45:37.238Z,82.20
2019-04-27T09:48:07.850Z,82.40
2019-04-27T09:50:37.126Z,80.60
2019-04-27T09:53:06.521Z,81.20
2019-04-27T09:55:36.890Z,82.00
2019-04-27T09:58:06.235Z,81.20
2019-04-27T10:00:36.434Z,81.50
2019-04-27T10:03:06.618Z,82.90
2019-04-27T10:05:36.686Z,80.10
2019-04-27T10:08:06.382Z,80.50
2019-04-27T10:10:37.144Z,81.60
2019-04-27T10:13:07.119Z,79.70
2019-04-27T10:15:36.406Z,79.90
2019-04-27T10:18:06.095Z,79.30
2019-04-27T10:20:39.005Z,78.10
2019-04-27T10:23:06.699Z,77.90
2019-04-27T10:25:37.482Z,76.70
2019-04-27T10:28:06.974Z,75.00
2019-04-27T10:30:36.211Z,74.90
2019-04-27T10:33:07.728Z,76.90
2019-04-27T10:35:36.488Z,74.40
2019-04-27T10:38:05.782Z,75.30
2019-04-27T10:40:35.054Z,74.60
2019-04-27T10:43:06.161Z,72.80
2019-04-27T10:45:35.763Z,73.80
2019-04-27T10:48:06.398Z,74.10
2019-04-27T10:50:36.605Z,75.10
2019-04-27T10:53:06.905Z,75.90
2019-04-27T10:55:36.590Z,76.80
2019-04-27T10:58:06.066Z,77.60
2019-04-27T11:00:39.815Z,75.00
2019-04-27T11:03:09.303Z,76.60
2019-04-27T11:05:57.000Z,77.60
2019-04-27T11:08:26.327Z,77.90
2019-04-27T11:10:56.408Z,76.70
2019-04-27T11:13:27.019Z,77.60
2019-04-27T11:15:56.291Z,78.10
2019-04-27T11:18:25.918Z,78.80
2019-04-27T11:20:56.751Z,78.10
2019-04-27T11:23:26.295Z,76.20
2019-04-27T11:25:55.551Z,77.10
2019-04-27T11:28:25.859Z,77.50
2019-04-27T11:30:55.160Z,76.90
2019-04-27T11:33:26.242Z,75.90
2019-04-27T11:35:59.939Z,75.00
2019-04-27T11:38:29.226Z,74.50
2019-04-27T11:40:58.482Z,76.80
2019-04-27T11:43:28.726Z,76.70
2019-04-27T11:45:57.994Z,76.10
2019-04-27T11:48:27.251Z,76.00
2019-04-27T11:50:56.519Z,76.60
2019-04-27T11:53:26.311Z,78.60
2019-04-27T11:55:55.622Z,77.50
2019-04-27T11:58:26.494Z,77.70
2019-04-27T12:00:55.827Z,78.00
2019-04-27T12:03:25.155Z,75.30
2019-04-27T12:05:59.486Z,72.80
2019-04-27T12:08:26.448Z,73.10
2019-04-27T12:10:55.847Z,75.00
2019-04-27T12:13:26.179Z,77.10
2019-04-27T12:15:55.446Z,77.50
2019-04-27T12:18:24.714Z,78.20
2019-04-27T12:20:55.675Z,78.60
2019-04-27T12:23:35.087Z,78.10
2019-04-27T12:25:56.400Z,78.70
2019-04-27T12:28:32.810Z,79.60
2019-04-27T12:31:04.678Z,79.50
2019-04-27T12:33:35.696Z,78.60
2019-04-27T12:36:06.739Z,78.30
2019-04-27T12:38:36.576Z,76.70
2019-04-27T12:41:06.798Z,78.20
2019-04-27T12:43:37.472Z,75.50
2019-04-27T12:46:06.877Z,76.70
2019-04-27T12:48:37.462Z,76.30
2019-04-27T12:51:07.034Z,75.60
2019-04-27T12:53:50.580Z,72.20
2019-04-27T12:56:16.694Z,71.80
2019-04-27T12:58:53.650Z,71.20
2019-04-27T13:01:25.840Z,73.10
2019-04-27T13:03:58.885Z,72.50
2019-04-27T13:06:26.419Z,70.70
2019-04-27T13:08:55.862Z,70.20
2019-04-27T13:11:26.708Z,71.20
2019-04-27T13:13:57.669Z,72.70
2019-04-27T13:16:30.284Z,72.10
2019-04-27T13:18:58.950Z,68.70
2019-04-27T13:21:28.218Z,64.30
2019-04-27T13:24:04.287Z,63.60
2019-04-27T13:26:28.668Z,61.70
2019-04-27T13:28:58.898Z,62.60
2019-04-27T13:31:28.170Z,65.10
2019-04-27T13:33:57.438Z,67.50
2019-04-27T13:36:26.734Z,66.50
2019-04-27T13:38:57.011Z,67.70
2019-04-27T13:41:32.585Z,69.00
2019-04-27T13:43:57.530Z,68.00
2019-04-27T13:46:28.515Z,74.10
2019-04-27T13:48:59.439Z,76.90
2019-04-27T13:51:45.103Z,79.60
2019-04-27T13:54:23.828Z,83.90
2019-04-27T13:56:46.179Z,83.50
2019-04-27T13:59:16.530Z,83.30
2019-04-27T14:01:45.866Z,85.70
2019-04-27T14:04:15.126Z,84.70
2019-04-27T14:06:44.395Z,86.30
2019-04-27T14:09:13.718Z,87.70
2019-04-27T14:11:43.060Z,87.50
2019-04-27T14:14:12.318Z,85.60
2019-04-27T14:16:43.783Z,88.20
2019-04-27T14:19:12.766Z,89.80
2019-04-27T14:21:42.039Z,89.40
2019-04-27T14:24:11.295Z,88.90
2019-04-27T14:26:40.575Z,87.10
2019-04-27T14:29:09.831Z,88.70
2019-04-27T14:31:39.646Z,88.80
2019-04-27T14:34:10.015Z,90.50
2019-04-27T14:36:40.567Z,90.80
2019-04-27T14:39:11.735Z,90.70
2019-04-27T14:41:42.785Z,90.10
2019-04-27T14:44:12.053Z,88.80
2019-04-27T14:46:41.320Z,85.00
2019-04-27T14:49:10.591Z,87.10
2019-04-27T14:51:40.173Z,89.30
2019-04-27T14:54:09.503Z,89.90
2019-04-27T14:56:38.983Z,90.20
2019-04-27T14:59:08.323Z,90.20
2019-04-27T15:01:39.923Z,89.60
2019-04-27T15:04:08.545Z,88.40
2019-04-27T15:06:37.807Z,86.20
2019-04-27T15:09:07.511Z,86.40
2019-04-27T15:11:36.780Z,81.50
2019-04-27T15:14:06.281Z,82.10
2019-04-27T15:16:37.926Z,82.80
2019-04-27T15:19:08.143Z,78.70
2019-04-27T15:21:38.905Z,71.90
2019-04-27T15:24:09.978Z,74.30
2019-04-27T15:26:39.575Z,76.20
2019-04-27T15:29:12.122Z,76.00
2019-04-27T15:31:43.090Z,78.70
2019-04-27T15:34:16.979Z,80.60
2019-04-27T15:37:02.460Z,79.60
2019-04-27T15:39:48.959Z,80.40
2019-04-27T15:42:21.951Z,81.50
2019-04-27T15:44:51.227Z,80.20
2019-04-27T15:47:20.500Z,79.50
2019-04-27T15:49:51.118Z,80.30
2019-04-27T15:52:20.791Z,82.60
2019-04-27T15:54:50.275Z,83.10
2019-04-27T15:57:20.848Z,83.90
2019-04-27T15:59:50.183Z,83.80
2019-04-27T16:02:19.449Z,84.10
2019-04-27T16:04:53.164Z,84.40
2019-04-27T16:07:25.236Z,83.80
2019-04-27T16:09:54.348Z,84.80
2019-04-27T16:12:22.630Z,83.60
2019-04-27T16:14:51.918Z,82.50
2019-04-27T16:17:21.174Z,83.20
2019-04-27T16:19:50.674Z,83.60
2019-04-27T16:22:22.711Z,82.70
2019-04-27T16:24:53.529Z,81.10
2019-04-27T16:27:25.901Z,82.20
2019-04-27T16:29:53.356Z,81.80
2019-04-27T16:32:22.978Z,83.60
2019-04-27T16:34:52.242Z,83.20
2019-04-27T16:37:23.142Z,82.10
2019-04-27T16:39:52.452Z,83.80
2019-04-27T16:42:21.706Z,85.40
2019-04-27T16:44:53.183Z,85.30
2019-04-27T16:47:24.560Z,84.40
2019-04-27T16:49:53.199Z,84.80
2019-04-27T16:52:22.529Z,85.30
2019-04-27T16:54:56.946Z,85.10
2019-04-27T16:57:24.619Z,84.50
2019-04-27T17:07:46.519Z,87.50
2019-04-27T17:10:16.404Z,89.50
2019-04-27T17:12:48.670Z,91.10
2019-04-27T17:15:36.259Z,92.10
2019-04-27T17:18:24.383Z,91.90
2019-04-27T17:21:02.697Z,92.00
2019-04-27T17:23:31.381Z,91.70
2019-04-27T17:26:09.313Z,90.80
2019-04-27T17:28:37.462Z,89.00
2019-04-27T17:31:05.194Z,88.20
2019-04-27T17:33:39.006Z,89.10
2019-04-27T17:36:12.167Z,88.30
2019-04-27T17:38:42.606Z,87.90
2019-04-27T17:41:12.700Z,87.50
2019-04-27T17:43:42.715Z,88.40
2019-04-27T17:46:13.156Z,86.70
2019-04-27T17:48:42.543Z,88.60
2019-04-27T17:51:12.037Z,88.50
2019-04-27T17:53:41.315Z,86.60
2019-04-27T17:56:10.580Z,83.30
2019-04-27T17:58:40.936Z,85.90
2019-04-27T18:01:13.914Z,85.50
2019-04-27T18:03:41.895Z,86.10
2019-04-27T18:06:11.154Z,86.00
2019-04-27T18:08:40.481Z,86.70
2019-04-27T18:11:09.762Z,86.40
2019-04-27T18:13:42.034Z,86.50
2019-04-27T18:16:10.254Z,88.70
2019-04-27T18:18:48.669Z,90.00
2019-04-27T18:21:19.783Z,90.00
2019-04-27T18:23:55.265Z,90.10
2019-04-27T18:26:24.604Z,90.90
2019-04-27T18:28:54.194Z,90.70
2019-04-27T18:31:23.475Z,90.70
2019-04-27T18:33:52.807Z,90.50
2019-04-27T18:36:22.142Z,90.80
2019-04-27T18:38:51.391Z,90.90
2019-04-27T18:41:20.884Z,90.70
2019-04-27T18:43:52.143Z,90.30
2019-04-27T18:46:24.493Z,90.50
2019-04-27T18:48:54.089Z,90.50
2019-04-27T18:51:31.035Z,90.30
2019-04-27T18:54:03.584Z,90.90
2019-04-27T18:56:33.496Z,91.30
2019-04-27T18:59:03.133Z,91.10
2019-04-27T19:01:32.460Z,90.90
2019-04-27T19:04:01.719Z,90.90
2019-04-27T19:06:30.979Z,90.80
2019-04-27T19:09:00.239Z,91.00
2019-04-27T19:11:29.498Z,91.00
2019-04-27T19:13:59.120Z,91.10
2019-04-27T19:16:29.219Z,91.20
2019-04-27T19:18:58.599Z,91.20
2019-04-27T19:21:28.831Z,91.30
2019-04-27T19:23:58.554Z,91.40
2019-04-27T19:26:29.559Z,91.20
2019-04-27T19:29:09.127Z,90.20
2019-04-27T19:31:40.018Z,90.50
2019-04-27T19:34:10.253Z,90.80
2019-04-27T19:36:39.511Z,91.30
2019-04-27T19:39:10.011Z,91.30
2019-04-27T19:41:39.535Z,91.30
2019-04-27T19:44:10.223Z,91.40
2019-04-27T19:46:40.274Z,91.30
2019-04-27T19:49:09.671Z,91.10
2019-04-27T19:51:39.297Z,91.40
2019-04-27T19:54:09.727Z,91.20
2019-04-27T19:56:38.989Z,91.20
2019-04-27T19:59:09.883Z,91.70
2019-04-27T20:01:48.125Z,91.20
2019-04-27T20:04:22.166Z,91.50
2019-04-27T20:06:51.430Z,91.40
2019-04-27T20:09:25.002Z,91.70
2019-04-27T20:11:54.279Z,92.20
2019-04-27T20:14:23.761Z,92.00
2019-04-27T20:16:53.014Z,91.80
2019-04-27T20:19:22.282Z,92.00
2019-04-27T20:21:51.548Z,92.40
2019-04-27T20:24:22.737Z,92.20
2019-04-27T20:26:51.770Z,92.30
2019-04-27T20:29:21.761Z,92.30
2019-04-27T20:31:51.278Z,92.30
2019-04-27T20:34:20.933Z,92.20
2019-04-27T20:36:52.894Z,92.20
2019-04-27T20:39:22.192Z,92.30
2019-04-27T20:41:51.519Z,92.60
2019-04-27T20:44:21.115Z,92.50
2019-04-27T20:46:51.387Z,92.70
2019-04-27T20:49:21.011Z,92.30
2019-04-27T20:51:55.815Z,92.60
2019-04-27T20:54:25.067Z,92.20
2019-04-27T20:56:57.196Z,92.30
2019-04-27T20:59:25.275Z,92.70
2019-04-27T21:01:54.535Z,92.60
2019-04-27T21:04:25.476Z,92.10
2019-04-27T21:06:56.374Z,92.00
2019-04-27T21:09:25.666Z,91.80
2019-04-27T21:11:54.926Z,91.90
2019-04-27T21:14:24.207Z,92.00
2019-04-27T21:16:53.467Z,91.90
2019-04-27T21:19:22.730Z,92.10
2019-04-27T21:21:52.212Z,92.30
2019-04-27T21:24:22.829Z,92.00
2019-04-27T21:26:53.302Z,92.50
2019-04-27T21:29:22.567Z,92.00
2019-04-27T21:31:52.100Z,92.00
2019-04-27T21:34:21.389Z,91.90
2019-04-27T21:36:51.115Z,91.70
2019-04-27T21:39:21.700Z,91.70
2019-04-27T21:41:51.663Z,92.00
2019-04-27T21:44:21.775Z,92.00
2019-04-27T21:46:51.859Z,92.10
2019-04-27T21:49:22.741Z,92.00
2019-04-27T21:52:02.551Z,91.90
2019-04-27T21:54:33.530Z,92.10
2019-04-27T21:57:02.947Z,91.60
2019-04-27T21:59:32.206Z,91.90
2019-04-27T22:02:03.178Z,91.90
2019-04-27T22:04:32.503Z,92.00
2019-04-27T22:07:02.057Z,92.00
2019-04-27T22:09:31.319Z,92.20
2019-04-27T22:12:02.521Z,91.90
2019-04-27T22:14:31.530Z,91.60
2019-04-27T22:17:00.939Z,91.50
2019-04-27T22:19:31.095Z,91.90
2019-04-27T22:22:02.143Z,91.50
2019-04-27T22:24:33.042Z,91.60
2019-04-27T22:27:02.299Z,92.00
2019-04-27T22:29:32.098Z,91.60
2019-04-27T22:32:01.899Z,91.60
2019-04-27T22:34:31.334Z,91.60
2019-04-27T22:37:02.699Z,92.00
2019-04-27T22:39:36.522Z,91.10
2019-04-27T22:42:07.426Z,90.60
2019-04-27T22:44:38.323Z,90.80
2019-04-27T22:47:07.595Z,90.90
2019-04-27T22:49:36.858Z,91.30
2019-04-27T22:52:06.134Z,91.20
2019-04-27T22:54:35.623Z,91.40
2019-04-27T22:57:06.517Z,91.70
2019-04-27T22:59:37.414Z,91.90
2019-04-27T23:02:11.566Z,91.80
2019-04-27T23:04:48.263Z,91.80
2019-04-27T23:07:17.529Z,92.10
2019-04-27T23:09:46.785Z,91.70
2019-04-27T23:12:16.116Z,92.10
2019-04-27T23:14:45.376Z,92.10
2019-04-27T23:17:32.714Z,92.00
2019-04-27T23:20:01.975Z,92.20
2019-04-27T23:22:31.579Z,92.30
2019-04-27T23:25:01.250Z,92.40
2019-04-27T23:27:31.816Z,92.40
2019-04-27T23:30:01.556Z,91.90
2019-04-27T23:32:32.599Z,91.70
2019-04-27T23:35:01.864Z,91.60
2019-04-27T23:37:31.190Z,91.70
2019-04-27T23:40:00.599Z,91.70
2019-04-27T23:42:31.661Z,91.50
2019-04-27T23:45:01.203Z,91.70
2019-04-27T23:47:31.444Z,91.80
2019-04-27T23:50:00.920Z,91.80
2019-04-27T23:52:50.615Z,91.70
2019-04-27T23:55:22.151Z,91.90
2019-04-27T23:57:51.410Z,91.90
